createdAt,value
2022-08-14T00:01:55.098Z,20.50
2022-08-14T00:04:35.762Z,20.50
2022-08-14T00:07:09.067Z,20.40
2022-08-14T00:09:56.047Z,20.40
2022-08-14T00:12:23.608Z,20.30
2022-08-14T00:14:55.002Z,20.30
2022-08-14T00:17:22.520Z,20.20
2022-08-14T00:19:49.093Z,20.20
2022-08-14T00:22:44.404Z,20.20
2022-08-14T00:25:08.969Z,20.10
2022-08-14T00:27:38.026Z,20.10
2022-08-14T00:30:09.017Z,20.10
2022-08-14T00:32:56.389Z,20.00
2022-08-14T00:35:25.882Z,20.00
2022-08-14T00:38:10.672Z,20.00
2022-08-14T00:40:37.509Z,19.90
2022-08-14T00:43:04.538Z,19.90
2022-08-14T00:45:31.463Z,19.80
2022-08-14T00:47:58.454Z,19.80
2022-08-14T00:50:29.385Z,19.70
2022-08-14T00:52:56.745Z,19.70
2022-08-14T00:55:24.611Z,19.70
2022-08-14T00:58:11.206Z,19.60
2022-08-14T01:00:42.993Z,19.70
2022-08-14T01:03:19.068Z,19.60
2022-08-14T01:05:52.046Z,19.50
2022-08-14T01:08:52.472Z,19.50
2022-08-14T01:11:25.301Z,19.50
2022-08-14T01:14:01.578Z,19.40
2022-08-14T01:16:31.911Z,19.40
2022-08-14T01:19:19.543Z,19.40
2022-08-14T01:21:53.133Z,19.40
2022-08-14T01:24:24.743Z,19.30
2022-08-14T01:26:57.941Z,19.30
2022-08-14T01:29:58.103Z,19.30
2022-08-14T01:32:15.688Z,19.20
2022-08-14T01:35:17.569Z,19.20
2022-08-14T01:37:37.917Z,19.20
2022-08-14T01:40:11.170Z,19.20
2022-08-14T01:42:37.752Z,19.10
2022-08-14T01:45:12.348Z,19.10
2022-08-14T01:47:44.586Z,19.10
2022-08-14T01:50:11.241Z,19.00
2022-08-14T01:53:00.155Z,19.00
2022-08-14T01:55:32.855Z,19.00
2022-08-14T01:58:01.543Z,18.90
2022-08-14T02:00:48.145Z,18.90
2022-08-14T02:03:16.184Z,18.90
2022-08-14T02:05:43.312Z,18.80
2022-08-14T02:08:10.534Z,18.80
2022-08-14T02:10:46.569Z,18.80
2022-08-14T02:13:16.167Z,18.80
2022-08-14T02:15:43.708Z,18.70
2022-08-14T02:18:11.869Z,18.70
2022-08-14T02:20:42.177Z,18.70
2022-08-14T02:23:09.078Z,18.70
2022-08-14T02:25:36.211Z,18.70
2022-08-14T02:28:25.513Z,18.60
2022-08-14T02:30:52.348Z,18.60
2022-08-14T02:33:20.880Z,18.50
2022-08-14T02:35:52.964Z,18.50
2022-08-14T02:38:29.545Z,18.50
2022-08-14T02:40:58.146Z,18.50
2022-08-14T02:43:24.754Z,18.40
2022-08-14T02:46:03.436Z,18.40
2022-08-14T02:49:03.283Z,18.40
2022-08-14T02:51:23.299Z,18.30
2022-08-14T02:53:50.282Z,18.30
2022-08-14T02:56:30.632Z,18.30
2022-08-14T02:59:07.242Z,18.20
2022-08-14T03:01:43.939Z,18.20
2022-08-14T03:04:20.496Z,18.20
2022-08-14T03:07:06.589Z,18.10
2022-08-14T03:09:41.866Z,18.10
2022-08-14T03:12:30.772Z,18.10
2022-08-14T03:15:02.749Z,18.10
2022-08-14T03:17:31.992Z,18.10
2022-08-14T03:20:11.194Z,18.00
2022-08-14T03:22:41.866Z,18.00
2022-08-14T03:25:10.039Z,18.00
2022-08-14T03:27:48.253Z,18.00
2022-08-14T03:30:25.149Z,17.90
2022-08-14T03:33:08.028Z,17.90
2022-08-14T03:35:40.036Z,17.90
2022-08-14T03:39:15.588Z,17.90
2022-08-14T03:41:14.517Z,17.90
2022-08-14T03:43:41.745Z,17.80
2022-08-14T03:46:52.714Z,17.80
2022-08-14T03:48:57.741Z,17.80
2022-08-14T03:51:28.642Z,17.80
2022-08-14T03:53:57.498Z,17.80
2022-08-14T03:56:25.849Z,17.70
2022-08-14T03:58:54.222Z,17.70
2022-08-14T04:01:24.731Z,17.60
2022-08-14T04:04:05.500Z,17.60
2022-08-14T04:06:35.320Z,17.60
2022-08-14T04:09:14.166Z,17.60
2022-08-14T04:11:45.223Z,17.60
2022-08-14T04:14:16.504Z,17.60
2022-08-14T04:16:46.249Z,17.50
2022-08-14T04:19:18.591Z,17.50
2022-08-14T04:22:03.099Z,17.50
2022-08-14T04:24:39.246Z,17.50
2022-08-14T04:27:09.575Z,17.50
2022-08-14T04:29:39.991Z,17.50
2022-08-14T04:32:59.063Z,17.50
2022-08-14T04:34:56.516Z,17.50
2022-08-14T04:37:42.214Z,17.60
2022-08-14T04:40:27.959Z,17.60
2022-08-14T04:43:16.983Z,17.60
2022-08-14T04:45:44.486Z,17.60
2022-08-14T04:48:38.962Z,17.60
2022-08-14T04:51:03.556Z,17.70
2022-08-14T04:53:35.263Z,17.70
2022-08-14T04:56:03.899Z,17.70
2022-08-14T04:58:33.704Z,17.80
2022-08-14T05:01:01.378Z,17.80
2022-08-14T05:03:29.274Z,17.90
2022-08-14T05:05:59.659Z,17.90
2022-08-14T05:08:31.663Z,18.00
2022-08-14T05:11:11.957Z,18.00
2022-08-14T05:14:06.552Z,18.10
2022-08-14T05:16:29.267Z,18.10
2022-08-14T05:19:26.646Z,18.30
2022-08-14T05:21:59.945Z,18.30
2022-08-14T05:24:29.584Z,18.40
2022-08-14T05:26:56.277Z,18.50
2022-08-14T05:29:23.379Z,18.70
2022-08-14T05:31:55.802Z,18.70
2022-08-14T05:34:28.749Z,18.90
2022-08-14T05:36:58.977Z,19.00
2022-08-14T05:39:30.131Z,19.20
2022-08-14T05:41:58.038Z,19.40
2022-08-14T05:44:29.213Z,19.60
2022-08-14T05:46:56.465Z,19.80
2022-08-14T05:49:33.446Z,20.00
2022-08-14T05:52:01.577Z,20.30
2022-08-14T05:54:30.711Z,20.70
2022-08-14T05:57:03.632Z,20.90
2022-08-14T05:59:36.664Z,21.20
2022-08-14T06:02:07.696Z,21.30
2022-08-14T06:04:36.896Z,21.50
2022-08-14T06:07:03.626Z,21.70
2022-08-14T06:09:36.099Z,22.00
2022-08-14T06:12:10.569Z,22.30
2022-08-14T06:14:38.856Z,22.60
2022-08-14T06:17:05.643Z,23.00
2022-08-14T06:19:32.224Z,23.10
2022-08-14T06:21:59.487Z,23.30
2022-08-14T06:24:26.993Z,23.60
2022-08-14T06:26:56.666Z,23.80
2022-08-14T06:29:23.815Z,24.10
2022-08-14T06:32:00.033Z,24.50
2022-08-14T06:35:03.751Z,24.70
2022-08-14T06:37:16.769Z,25.00
2022-08-14T06:39:44.265Z,25.10
2022-08-14T06:42:25.588Z,25.60
2022-08-14T06:44:58.362Z,25.90
2022-08-14T06:47:25.128Z,26.30
2022-08-14T06:49:57.692Z,26.70
2022-08-14T06:52:25.050Z,27.20
2022-08-14T06:54:51.697Z,27.60
2022-08-14T06:57:18.617Z,28.10
2022-08-14T06:59:48.470Z,28.50
2022-08-14T07:02:36.008Z,28.90
2022-08-14T07:05:23.366Z,29.60
2022-08-14T07:07:50.661Z,29.90
2022-08-14T07:10:17.639Z,30.80
2022-08-14T07:13:00.628Z,31.20
2022-08-14T07:15:32.454Z,31.70
2022-08-14T07:17:59.723Z,32.10
2022-08-14T07:20:30.840Z,32.40
2022-08-14T07:23:05.351Z,32.80
2022-08-14T07:25:37.641Z,32.30
2022-08-14T07:28:21.127Z,32.80
2022-08-14T07:30:50.779Z,32.70
2022-08-14T07:33:20.796Z,33.60
2022-08-14T07:35:58.439Z,33.90
2022-08-14T07:38:33.963Z,34.10
2022-08-14T07:41:06.884Z,34.60
2022-08-14T07:43:41.598Z,35.00
2022-08-14T07:46:08.316Z,34.90
2022-08-14T07:48:39.476Z,34.80
2022-08-14T07:51:10.985Z,34.60
2022-08-14T07:53:40.427Z,34.70
2022-08-14T07:56:21.409Z,34.70
2022-08-14T07:58:54.734Z,34.70
2022-08-14T08:01:26.203Z,34.80
2022-08-14T08:03:59.440Z,35.00
2022-08-14T08:06:26.774Z,34.80
2022-08-14T08:08:58.877Z,35.20
2022-08-14T08:11:34.785Z,35.60
2022-08-14T08:14:17.447Z,35.50
2022-08-14T08:16:51.142Z,36.30
2022-08-14T08:19:19.123Z,36.50
2022-08-14T08:21:46.933Z,36.90
2022-08-14T08:24:18.314Z,36.80
2022-08-14T08:26:46.717Z,37.20
2022-08-14T08:29:19.772Z,37.90
2022-08-14T08:31:52.706Z,38.40
2022-08-14T08:34:20.479Z,39.00
2022-08-14T08:36:50.476Z,39.50
2022-08-14T08:39:21.952Z,39.40
2022-08-14T08:41:53.287Z,40.30
2022-08-14T08:44:32.580Z,40.40
2022-08-14T08:47:05.935Z,41.20
2022-08-14T08:49:48.722Z,41.50
2022-08-14T08:52:30.846Z,42.00
2022-08-14T08:54:58.847Z,41.70
2022-08-14T08:57:25.522Z,41.00
2022-08-14T08:59:55.274Z,41.50
2022-08-14T09:02:25.986Z,41.90
2022-08-14T09:05:01.313Z,41.90
2022-08-14T09:07:28.034Z,41.90
2022-08-14T09:09:59.364Z,42.60
2022-08-14T09:12:31.563Z,42.60
2022-08-14T09:15:03.980Z,42.90
2022-08-14T09:17:38.409Z,42.80
2022-08-14T09:20:07.252Z,42.60
2022-08-14T09:22:48.203Z,42.90
2022-08-14T09:25:19.540Z,42.90
2022-08-14T09:27:46.688Z,43.10
2022-08-14T09:30:31.161Z,43.50
2022-08-14T09:33:09.044Z,43.70
2022-08-14T09:35:57.504Z,43.00
2022-08-14T09:38:33.412Z,43.30
2022-08-14T09:41:13.273Z,43.80
2022-08-14T09:43:42.832Z,43.00
2022-08-14T09:46:09.552Z,44.00
2022-08-14T09:48:38.435Z,44.40
2022-08-14T09:54:18.100Z,44.00
2022-08-14T09:56:30.893Z,44.70
2022-08-14T09:58:59.313Z,44.90
2022-08-14T10:01:35.752Z,45.30
2022-08-14T10:04:06.243Z,45.50
2022-08-14T10:06:45.418Z,45.30
2022-08-14T10:09:16.801Z,45.50
2022-08-14T10:11:59.110Z,45.40
2022-08-14T10:14:35.890Z,45.20
2022-08-14T10:17:06.549Z,45.30
2022-08-14T10:19:35.896Z,45.10
2022-08-14T10:23:14.343Z,45.60
2022-08-14T10:24:54.754Z,44.90
2022-08-14T10:27:26.742Z,43.80
2022-08-14T10:29:55.589Z,42.90
2022-08-14T10:32:36.356Z,42.00
2022-08-14T10:35:13.321Z,43.20
2022-08-14T10:37:52.413Z,42.70
2022-08-14T10:40:37.059Z,41.70
2022-08-14T10:43:23.283Z,42.40
2022-08-14T10:46:03.867Z,41.90
2022-08-14T10:48:45.973Z,41.00
2022-08-14T10:51:15.059Z,41.50
2022-08-14T10:53:41.687Z,42.20
2022-08-14T10:56:21.600Z,42.00
2022-08-14T10:59:02.909Z,42.20
2022-08-14T11:01:30.602Z,42.40
2022-08-14T11:03:59.281Z,41.40
2022-08-14T11:06:27.143Z,40.50
2022-08-14T11:08:55.119Z,39.90
2022-08-14T11:11:22.969Z,39.80
2022-08-14T11:13:50.908Z,39.10
2022-08-14T11:16:18.255Z,38.80
2022-08-14T11:18:50.889Z,38.70
2022-08-14T11:21:19.892Z,37.90
2022-08-14T11:23:49.316Z,38.00
2022-08-14T11:26:20.311Z,39.10
2022-08-14T11:28:49.708Z,40.70
2022-08-14T11:31:21.931Z,40.20
2022-08-14T11:33:50.083Z,39.50
2022-08-14T11:36:18.115Z,38.40
2022-08-14T11:38:46.000Z,37.70
2022-08-14T11:41:14.289Z,37.10
2022-08-14T11:43:55.840Z,37.10
2022-08-14T11:46:29.627Z,36.30
2022-08-14T11:49:05.503Z,35.90
2022-08-14T11:51:35.957Z,35.70
2022-08-14T11:54:09.660Z,36.40
2022-08-14T11:56:41.087Z,37.70
2022-08-14T11:59:10.317Z,38.80
2022-08-14T12:01:41.357Z,39.00
2022-08-14T12:04:09.181Z,39.30
2022-08-14T12:06:56.288Z,38.90
2022-08-14T12:09:32.974Z,38.30
2022-08-14T12:12:00.125Z,37.10
2022-08-14T12:14:29.722Z,36.70
2022-08-14T12:16:58.924Z,37.40
2022-08-14T12:19:26.238Z,37.40
2022-08-14T12:21:53.753Z,37.30
2022-08-14T12:24:35.996Z,37.90
2022-08-14T12:27:03.770Z,38.60
2022-08-14T12:29:31.831Z,39.20
2022-08-14T12:32:00.159Z,39.50
2022-08-14T12:34:31.334Z,39.80
2022-08-14T12:37:03.242Z,39.60
2022-08-14T12:39:29.858Z,39.10
2022-08-14T12:42:07.680Z,38.40
2022-08-14T12:44:38.565Z,37.80
2022-08-14T12:47:07.794Z,37.20
2022-08-14T12:49:34.569Z,36.60
2022-08-14T12:52:17.159Z,36.20
2022-08-14T12:54:57.577Z,35.90
2022-08-14T12:57:39.404Z,35.70
2022-08-14T13:00:23.708Z,35.50
2022-08-14T13:02:54.844Z,35.40
2022-08-14T13:05:27.492Z,35.70
2022-08-14T13:07:54.960Z,36.50
2022-08-14T13:10:47.518Z,38.10
2022-08-14T13:13:15.756Z,38.80
2022-08-14T13:15:47.978Z,38.90
2022-08-14T13:18:23.968Z,38.10
2022-08-14T13:20:57.865Z,37.10
2022-08-14T13:23:31.553Z,37.10
2022-08-14T13:25:59.417Z,38.10
2022-08-14T13:28:33.583Z,38.70
2022-08-14T13:31:01.090Z,38.90
2022-08-14T13:33:29.107Z,39.30
2022-08-14T13:35:56.480Z,39.70
2022-08-14T13:38:23.130Z,39.90
2022-08-14T13:40:54.312Z,40.20
2022-08-14T13:43:22.574Z,40.40
2022-08-14T13:46:00.643Z,40.00
2022-08-14T13:48:33.277Z,40.50
2022-08-14T13:51:05.720Z,40.60
2022-08-14T13:53:56.667Z,39.80
2022-08-14T13:56:36.562Z,39.00
2022-08-14T13:59:04.849Z,37.80
2022-08-14T14:01:42.668Z,37.30
2022-08-14T14:04:19.357Z,36.80
2022-08-14T14:06:51.352Z,36.20
2022-08-14T14:09:21.390Z,36.40
2022-08-14T14:11:47.965Z,37.30
2022-08-14T14:14:45.000Z,37.60
2022-08-14T14:17:08.836Z,38.00
2022-08-14T14:19:37.525Z,38.40
2022-08-14T14:22:06.295Z,38.80
2022-08-14T14:24:36.727Z,38.30
2022-08-14T14:27:38.985Z,38.50
2022-08-14T14:29:55.454Z,38.40
2022-08-14T14:32:29.341Z,38.30
2022-08-14T14:35:02.531Z,38.30
2022-08-14T14:37:30.030Z,38.20
2022-08-14T14:40:52.819Z,37.90
2022-08-14T14:42:48.899Z,37.70
2022-08-14T14:45:21.963Z,37.80
2022-08-14T14:47:51.526Z,37.40
2022-08-14T14:50:26.437Z,37.70
2022-08-14T14:53:00.779Z,38.00
2022-08-14T14:55:54.348Z,37.80
2022-08-14T14:58:30.428Z,37.80
2022-08-14T15:01:01.864Z,37.30
2022-08-14T15:03:29.698Z,36.80
2022-08-14T15:05:57.409Z,36.70
2022-08-14T15:08:26.687Z,36.40
2022-08-14T15:11:13.431Z,36.10
2022-08-14T15:13:43.085Z,35.60
2022-08-14T15:16:10.093Z,35.10
2022-08-14T15:18:40.071Z,34.60
2022-08-14T15:21:13.571Z,34.20
2022-08-14T15:23:44.733Z,33.80
2022-08-14T15:26:23.719Z,33.60
2022-08-14T15:29:02.709Z,33.60
2022-08-14T15:31:30.079Z,33.20
2022-08-14T15:34:43.497Z,32.90
2022-08-14T15:36:58.942Z,33.20
2022-08-14T15:39:29.280Z,33.30
2022-08-14T15:42:04.232Z,33.30
2022-08-14T15:44:56.585Z,33.50
2022-08-14T15:47:27.746Z,33.80
2022-08-14T15:49:56.291Z,34.00
2022-08-14T15:52:33.165Z,34.00
2022-08-14T15:55:07.189Z,34.00
2022-08-14T15:57:34.578Z,34.00
2022-08-14T16:00:37.838Z,34.00
2022-08-14T16:03:09.706Z,34.00
2022-08-14T16:05:38.175Z,34.00
2022-08-14T16:08:28.833Z,34.00
2022-08-14T16:10:55.153Z,34.00
2022-08-14T16:13:39.285Z,33.50
2022-08-14T16:16:34.848Z,33.30
2022-08-14T16:18:59.010Z,33.40
2022-08-14T16:21:31.758Z,33.40
2022-08-14T16:23:59.601Z,33.20
2022-08-14T16:26:29.240Z,33.20
2022-08-14T16:29:07.364Z,32.60
2022-08-14T16:31:36.584Z,32.70
2022-08-14T16:34:45.742Z,32.40
2022-08-14T16:36:51.286Z,32.30
2022-08-14T16:39:18.069Z,32.20
2022-08-14T16:41:45.631Z,32.00
2022-08-14T16:44:23.228Z,32.00
2022-08-14T16:47:01.220Z,31.90
2022-08-14T16:50:03.472Z,31.60
2022-08-14T16:52:25.912Z,31.80
2022-08-14T16:55:04.418Z,31.70
2022-08-14T16:57:31.706Z,31.60
2022-08-14T16:59:59.567Z,31.50
2022-08-14T17:02:37.005Z,31.50
2022-08-14T17:05:26.836Z,31.30
2022-08-14T17:08:28.569Z,31.10
2022-08-14T17:10:51.556Z,31.10
2022-08-14T17:13:47.495Z,30.90
2022-08-14T17:16:24.755Z,30.80
2022-08-14T17:19:00.535Z,30.80
2022-08-14T17:21:31.226Z,30.70
2022-08-14T17:24:57.382Z,30.70
2022-08-14T17:26:55.032Z,30.60
2022-08-14T17:29:22.295Z,30.40
2022-08-14T17:31:57.813Z,30.30
2022-08-14T17:34:26.034Z,30.30
2022-08-14T17:36:57.130Z,30.10
2022-08-14T17:39:28.359Z,30.00
2022-08-14T17:42:13.134Z,29.90
2022-08-14T17:44:45.542Z,29.90
2022-08-14T17:47:14.539Z,29.90
2022-08-14T17:49:46.244Z,29.70
2022-08-14T17:52:18.417Z,29.70
2022-08-14T17:54:52.720Z,29.70
2022-08-14T17:57:29.480Z,29.60
2022-08-14T18:00:03.103Z,29.60
2022-08-14T18:02:31.036Z,29.50
2022-08-14T18:05:03.135Z,29.40
2022-08-14T18:08:00.120Z,29.30
2022-08-14T18:10:52.080Z,29.20
2022-08-14T18:13:07.932Z,29.10
2022-08-14T18:15:39.127Z,29.00
2022-08-14T18:18:09.091Z,28.90
2022-08-14T18:21:40.467Z,28.90
2022-08-14T18:23:26.726Z,28.70
2022-08-14T18:25:56.580Z,28.60
2022-08-14T18:28:48.490Z,28.40
2022-08-14T18:31:20.831Z,28.40
2022-08-14T18:33:57.668Z,28.30
2022-08-14T18:36:48.659Z,28.30
2022-08-14T18:39:26.893Z,28.20
2022-08-14T18:42:23.386Z,28.10
2022-08-14T18:44:52.785Z,27.90
2022-08-14T18:47:20.603Z,27.80
2022-08-14T18:49:53.076Z,27.80
2022-08-14T18:52:29.629Z,27.70
2022-08-14T18:54:59.638Z,27.60
2022-08-14T18:57:27.160Z,27.50
2022-08-14T19:00:25.754Z,27.50
2022-08-14T19:03:00.102Z,27.40
2022-08-14T19:05:47.467Z,27.20
2022-08-14T19:08:18.041Z,27.10
2022-08-14T19:10:55.596Z,27.00
2022-08-14T19:13:44.791Z,26.90
2022-08-14T19:16:23.432Z,26.90
2022-08-14T19:18:54.410Z,26.80
2022-08-14T19:21:34.423Z,26.70
2022-08-14T19:24:30.505Z,26.70
2022-08-14T19:27:16.733Z,26.60
2022-08-14T19:29:47.858Z,26.60
2022-08-14T19:32:36.711Z,26.50
2022-08-14T19:35:17.962Z,26.50
2022-08-14T19:37:55.409Z,26.40
2022-08-14T19:40:33.923Z,26.30
2022-08-14T19:43:01.842Z,26.30
2022-08-14T19:45:30.214Z,26.20
2022-08-14T19:48:00.746Z,26.20
2022-08-14T19:50:40.311Z,26.10
2022-08-14T19:53:16.410Z,26.10
2022-08-14T19:55:47.188Z,26.00
2022-08-14T19:58:15.251Z,25.90
2022-08-14T20:00:52.426Z,25.80
2022-08-14T20:03:23.240Z,25.80
2022-08-14T20:06:00.363Z,25.70
2022-08-14T20:10:59.185Z,25.60
2022-08-14T20:11:58.612Z,25.50
2022-08-14T20:14:20.496Z,25.50
2022-08-14T20:16:54.622Z,25.40
2022-08-14T20:19:23.670Z,25.30
2022-08-14T20:21:58.340Z,25.30
2022-08-14T20:24:40.565Z,25.20
2022-08-14T20:27:24.865Z,25.20
2022-08-14T20:30:34.890Z,25.10
2022-08-14T20:33:08.076Z,25.00
2022-08-14T20:35:44.376Z,24.90
2022-08-14T20:38:31.132Z,24.80
2022-08-14T20:40:59.939Z,24.80
2022-08-14T20:43:46.437Z,24.70
2022-08-14T20:46:18.022Z,24.70
2022-08-14T20:49:00.647Z,24.60
2022-08-14T20:51:43.643Z,24.60
2022-08-14T20:54:34.519Z,24.50
2022-08-14T20:57:11.366Z,24.50
2022-08-14T20:59:39.960Z,24.50
2022-08-14T21:02:50.206Z,24.50
2022-08-14T21:05:21.207Z,24.40
2022-08-14T21:07:50.248Z,24.30
2022-08-14T21:10:36.161Z,24.30
2022-08-14T21:13:25.984Z,24.20
2022-08-14T21:15:58.053Z,24.20
2022-08-14T21:18:35.348Z,24.20
2022-08-14T21:21:19.027Z,24.10
2022-08-14T21:23:54.657Z,24.10
2022-08-14T21:26:52.041Z,24.00
2022-08-14T21:29:11.422Z,24.00
2022-08-14T21:31:38.454Z,24.00
2022-08-14T21:34:31.571Z,23.90
2022-08-14T21:36:54.394Z,23.90
2022-08-14T21:39:22.170Z,23.80
2022-08-14T21:41:58.954Z,23.70
2022-08-14T21:44:43.117Z,23.70
2022-08-14T21:47:12.018Z,23.70
2022-08-14T21:49:40.183Z,23.60
2022-08-14T21:52:52.011Z,23.60
2022-08-14T21:54:59.558Z,23.60
2022-08-14T21:58:03.803Z,23.50
2022-08-14T22:00:34.725Z,23.50
2022-08-14T22:03:02.052Z,23.40
2022-08-14T22:05:29.615Z,23.40
2022-08-14T22:07:56.897Z,23.30
2022-08-14T22:10:24.337Z,23.30
2022-08-14T22:13:00.376Z,23.20
2022-08-14T22:15:28.668Z,23.20
2022-08-14T22:17:56.996Z,23.20
2022-08-14T22:20:28.609Z,23.10
2022-08-14T22:22:56.643Z,23.10
2022-08-14T22:25:33.770Z,23.00
2022-08-14T22:28:03.166Z,22.90
2022-08-14T22:30:30.106Z,22.90
2022-08-14T22:33:00.099Z,22.80
2022-08-14T22:35:27.853Z,22.80
2022-08-14T22:38:34.935Z,22.70
2022-08-14T22:41:02.816Z,22.70
2022-08-14T22:43:31.548Z,22.70
2022-08-14T22:46:02.443Z,22.80
2022-08-14T22:48:29.725Z,22.70
2022-08-14T22:50:56.377Z,22.70
2022-08-14T22:53:24.011Z,22.70
2022-08-14T22:55:56.682Z,22.60
2022-08-14T22:58:30.382Z,22.70
2022-08-14T23:01:00.122Z,22.60
2022-08-14T23:03:27.172Z,22.60
2022-08-14T23:05:55.817Z,22.50
2022-08-14T23:08:56.254Z,22.50
2022-08-14T23:11:10.311Z,22.40
2022-08-14T23:13:38.960Z,22.40
2022-08-14T23:16:06.762Z,22.40
2022-08-14T23:18:34.545Z,22.30
2022-08-14T23:21:01.598Z,22.30
2022-08-14T23:23:28.373Z,22.20
2022-08-14T23:25:58.822Z,22.20
2022-08-14T23:28:32.759Z,22.20
2022-08-14T23:31:01.190Z,22.20
2022-08-14T23:33:28.093Z,22.20
2022-08-14T23:35:59.261Z,22.10
2022-08-14T23:38:30.571Z,22.10
2022-08-14T23:41:00.782Z,22.10
2022-08-14T23:43:31.055Z,22.00
2022-08-14T23:45:58.704Z,22.00
2022-08-14T23:48:28.202Z,22.00
2022-08-14T23:50:55.769Z,21.90
2022-08-14T23:53:28.634Z,21.90
2022-08-14T23:56:13.075Z,21.80
2022-08-14T23:58:39.909Z,21.90
